NCAR-RAP Real-Time Weather Data

Output produced by METARs form (08 May 2021  00:24 UTC)
found at http://weather.rap.ucar.edu/surface/
 
KLFT 072353Z 03004KT 10SM CLR 27/11 A3007 RMK AO2 SLP181 T02720111 10294 20272 56012
KLFT 072253Z 05005KT 10SM CLR 28/10 A3008 RMK AO2 SLP184 T02830100
KLFT 072153Z 02004KT 10SM CLR 29/10 A3009 RMK AO2 SLP189 T02890100
KLFT 072053Z 06004KT 10SM CLR 29/10 A3010 RMK AO2 SLP194 T02890100 58026
KLFT 071953Z 36005KT 10SM CLR 29/10 A3013 RMK AO2 SLP203 T02890100
KLFT 071853Z 36007KT 330V050 10SM CLR 28/11 A3016 RMK AO2 SLP211 T02830111
KLFT 071753Z VRB05KT 10SM CLR 28/10 A3018 RMK AO2 SLP219 T02780100 10283 20156 58006
KLFT 071653Z 00000KT 10SM CLR 27/13 A3019 RMK AO2 SLP222 T02670133
KLFT 071553Z VRB03KT 10SM CLR 25/14 A3020 RMK AO2 SLP226 T02500144
KLFT 071453Z 34006KT 10SM CLR 24/14 A3020 RMK AO2 SLP225 T02440139 51015
KLFT 071353Z 33006KT 10SM CLR 23/13 A3020 RMK AO2 SLP224 T02280133
KLFT 071253Z 34004KT 10SM CLR 20/14 A3018 RMK AO2 SLP220 T02000139
KLFT 071153Z 00000KT 10SM CLR 16/13 A3015 RMK AO2 SLP210 T01560133 10167 20144 53011
KLFT 071053Z 00000KT 10SM CLR 16/13 A3013 RMK AO2 SLP203 T01560128
KLFT 070953Z AUTO 00000KT 10SM CLR 15/13 A3012 RMK AO2 SLP200 T01500133